sensor_id;sensor_type;location;lat;lon;timestamp;P1;durP1;ratioP1;P2;durP2;ratioP2
66609;SDS011;53468;48.276;14.416;2023-01-15T00:03:01;4.90;;;2.80;;
66609;SDS011;53468;48.276;14.416;2023-01-15T00:08:03;6.40;;;2.67;;
66609;SDS011;53468;48.276;14.416;2023-01-15T00:13:06;9.13;;;3.33;;
66609;SDS011;53468;48.276;14.416;2023-01-15T00:18:09;5.30;;;2.70;;
66609;SDS011;53468;48.276;14.416;2023-01-15T00:23:11;7.00;;;2.65;;
66609;SDS011;53468;48.276;14.416;2023-01-15T00:28:33;7.68;;;2.90;;
66609;SDS011;53468;48.276;14.416;2023-01-15T00:33:37;6.95;;;2.30;;
66609;SDS011;53468;48.276;14.416;2023-01-15T00:38:39;5.35;;;2.53;;
66609;SDS011;53468;48.276;14.416;2023-01-15T00:43:41;4.28;;;2.60;;
66609;SDS011;53468;48.276;14.416;2023-01-15T00:48:44;6.68;;;3.03;;
66609;SDS011;53468;48.276;14.416;2023-01-15T00:53:46;5.72;;;2.35;;
66609;SDS011;53468;48.276;14.416;2023-01-15T00:58:48;4.63;;;2.70;;
66609;SDS011;53468;48.276;14.416;2023-01-15T01:03:52;4.57;;;2.42;;
66609;SDS011;53468;48.276;14.416;2023-01-15T01:08:54;6.88;;;2.72;;
66609;SDS011;53468;48.276;14.416;2023-01-15T01:13:57;6.53;;;2.78;;
66609;SDS011;53468;48.276;14.416;2023-01-15T01:19:03;3.45;;;2.00;;
66609;SDS011;53468;48.276;14.416;2023-01-15T01:24:06;4.20;;;1.63;;
66609;SDS011;53468;48.276;14.416;2023-01-15T01:29:10;3.92;;;2.10;;
66609;SDS011;53468;48.276;14.416;2023-01-15T01:34:15;5.22;;;1.88;;
66609;SDS011;53468;48.276;14.416;2023-01-15T01:39:17;5.93;;;1.95;;
66609;SDS011;53468;48.276;14.416;2023-01-15T01:50:02;3.90;;;1.90;;
66609;SDS011;53468;48.276;14.416;2023-01-15T01:55:08;4.40;;;2.10;;
66609;SDS011;53468;48.276;14.416;2023-01-15T02:00:12;6.55;;;2.55;;
66609;SDS011;53468;48.276;14.416;2023-01-15T02:05:18;4.68;;;2.53;;
66609;SDS011;53468;48.276;14.416;2023-01-15T02:10:26;4.88;;;3.42;;
66609;SDS011;53468;48.276;14.416;2023-01-15T02:15:30;6.70;;;2.53;;
66609;SDS011;53468;48.276;14.416;2023-01-15T02:20:38;4.13;;;2.28;;
66609;SDS011;53468;48.276;14.416;2023-01-15T02:25:51;5.15;;;2.08;;
66609;SDS011;53468;48.276;14.416;2023-01-15T02:31:07;4.60;;;1.45;;
66609;SDS011;53468;48.276;14.416;2023-01-15T02:36:13;3.58;;;1.85;;
66609;SDS011;53468;48.276;14.416;2023-01-15T02:41:18;3.58;;;1.80;;
66609;SDS011;53468;48.276;14.416;2023-01-15T02:46:26;3.72;;;1.75;;
66609;SDS011;53468;48.276;14.416;2023-01-15T02:51:32;4.68;;;2.10;;
66609;SDS011;53468;48.276;14.416;2023-01-15T02:56:40;3.30;;;1.85;;
66609;SDS011;53468;48.276;14.416;2023-01-15T03:01:48;4.40;;;2.13;;
66609;SDS011;53468;48.276;14.416;2023-01-15T03:06:54;9.45;;;3.53;;
66609;SDS011;53468;48.276;14.416;2023-01-15T03:12:03;14.65;;;5.63;;
66609;SDS011;53468;48.276;14.416;2023-01-15T03:17:12;10.23;;;3.88;;
66609;SDS011;53468;48.276;14.416;2023-01-15T03:22:20;5.25;;;1.67;;
66609;SDS011;53468;48.276;14.416;2023-01-15T03:27:28;4.05;;;2.05;;
66609;SDS011;53468;48.276;14.416;2023-01-15T03:32:32;4.75;;;1.98;;
66609;SDS011;53468;48.276;14.416;2023-01-15T03:37:34;6.68;;;2.28;;
66609;SDS011;53468;48.276;14.416;2023-01-15T03:42:40;2.92;;;1.50;;
66609;SDS011;53468;48.276;14.416;2023-01-15T03:47:52;4.00;;;1.85;;
66609;SDS011;53468;48.276;14.416;2023-01-15T03:53:04;4.47;;;1.58;;
66609;SDS011;53468;48.276;14.416;2023-01-15T03:58:11;4.07;;;1.55;;
66609;SDS011;53468;48.276;14.416;2023-01-15T04:03:21;4.22;;;1.77;;
66609;SDS011;53468;48.276;14.416;2023-01-15T04:08:24;7.00;;;1.95;;
66609;SDS011;53468;48.276;14.416;2023-01-15T04:13:28;5.35;;;2.25;;
66609;SDS011;53468;48.276;14.416;2023-01-15T04:18:31;9.20;;;3.22;;
66609;SDS011;53468;48.276;14.416;2023-01-15T04:23:33;5.63;;;2.65;;
66609;SDS011;53468;48.276;14.416;2023-01-15T04:28:36;5.65;;;2.72;;
66609;SDS011;53468;48.276;14.416;2023-01-15T04:33:39;11.02;;;3.30;;
66609;SDS011;53468;48.276;14.416;2023-01-15T04:38:42;5.05;;;1.88;;
66609;SDS011;53468;48.276;14.416;2023-01-15T04:43:44;6.20;;;2.30;;
66609;SDS011;53468;48.276;14.416;2023-01-15T04:49:07;7.25;;;2.75;;
66609;SDS011;53468;48.276;14.416;2023-01-15T04:54:11;4.93;;;1.85;;
66609;SDS011;53468;48.276;14.416;2023-01-15T04:59:14;7.68;;;2.55;;
66609;SDS011;53468;48.276;14.416;2023-01-15T05:04:19;7.55;;;2.72;;
66609;SDS011;53468;48.276;14.416;2023-01-15T05:09:21;5.50;;;2.42;;
66609;SDS011;53468;48.276;14.416;2023-01-15T05:14:24;7.57;;;2.65;;
66609;SDS011;53468;48.276;14.416;2023-01-15T05:19:28;5.95;;;2.50;;
66609;SDS011;53468;48.276;14.416;2023-01-15T05:24:30;5.53;;;2.80;;
66609;SDS011;53468;48.276;14.416;2023-01-15T05:29:32;6.22;;;2.28;;
66609;SDS011;53468;48.276;14.416;2023-01-15T05:34:35;6.97;;;2.85;;
66609;SDS011;53468;48.276;14.416;2023-01-15T05:39:38;6.57;;;2.85;;
66609;SDS011;53468;48.276;14.416;2023-01-15T05:44:40;4.38;;;2.60;;
66609;SDS011;53468;48.276;14.416;2023-01-15T05:49:43;6.43;;;2.88;;
66609;SDS011;53468;48.276;14.416;2023-01-15T05:54:47;10.23;;;2.92;;
66609;SDS011;53468;48.276;14.416;2023-01-15T05:59:50;6.85;;;2.60;;
66609;SDS011;53468;48.276;14.416;2023-01-15T06:04:54;3.90;;;2.20;;
66609;SDS011;53468;48.276;14.416;2023-01-15T06:09:57;6.20;;;2.50;;
66609;SDS011;53468;48.276;14.416;2023-01-15T06:14:59;4.60;;;2.47;;
66609;SDS011;53468;48.276;14.416;2023-01-15T06:20:02;4.35;;;2.42;;
66609;SDS011;53468;48.276;14.416;2023-01-15T06:25:05;5.82;;;2.38;;
66609;SDS011;53468;48.276;14.416;2023-01-15T06:30:09;2.92;;;1.60;;
66609;SDS011;53468;48.276;14.416;2023-01-15T06:35:13;2.90;;;1.30;;
66609;SDS011;53468;48.276;14.416;2023-01-15T06:40:17;3.10;;;1.40;;
66609;SDS011;53468;48.276;14.416;2023-01-15T06:45:19;2.10;;;1.25;;
66609;SDS011;53468;48.276;14.416;2023-01-15T06:50:40;3.33;;;1.30;;
66609;SDS011;53468;48.276;14.416;2023-01-15T06:55:42;3.22;;;1.65;;
66609;SDS011;53468;48.276;14.416;2023-01-15T07:00:44;3.83;;;1.60;;
66609;SDS011;53468;48.276;14.416;2023-01-15T07:05:54;3.40;;;1.58;;
66609;SDS011;53468;48.276;14.416;2023-01-15T07:11:00;5.55;;;1.42;;
66609;SDS011;53468;48.276;14.416;2023-01-15T07:16:03;4.50;;;1.63;;
66609;SDS011;53468;48.276;14.416;2023-01-15T07:21:27;2.40;;;1.45;;
66609;SDS011;53468;48.276;14.416;2023-01-15T07:26:29;2.40;;;1.38;;
66609;SDS011;53468;48.276;14.416;2023-01-15T07:31:32;5.18;;;1.83;;
66609;SDS011;53468;48.276;14.416;2023-01-15T07:36:35;3.58;;;1.70;;
66609;SDS011;53468;48.276;14.416;2023-01-15T07:41:37;3.33;;;1.80;;
66609;SDS011;53468;48.276;14.416;2023-01-15T07:46:57;3.70;;;1.67;;
66609;SDS011;53468;48.276;14.416;2023-01-15T07:52:18;7.03;;;3.30;;
66609;SDS011;53468;48.276;14.416;2023-01-15T07:57:21;8.00;;;2.78;;
66609;SDS011;53468;48.276;14.416;2023-01-15T08:02:24;8.70;;;3.90;;
66609;SDS011;53468;48.276;14.416;2023-01-15T09:19:08;4.00;;;2.10;;
66609;SDS011;53468;48.276;14.416;2023-01-15T09:48:19;5.30;;;2.60;;
66609;SDS011;53468;48.276;14.416;2023-01-15T10:06:47;6.10;;;3.00;;
66609;SDS011;53468;48.276;14.416;2023-01-15T10:30:59;6.97;;;2.85;;
66609;SDS011;53468;48.276;14.416;2023-01-15T14:32:33;2.07;;;1.00;;
66609;SDS011;53468;48.276;14.416;2023-01-15T14:37:47;2.85;;;1.05;;
66609;SDS011;53468;48.276;14.416;2023-01-15T14:43:00;1.33;;;0.70;;
66609;SDS011;53468;48.276;14.416;2023-01-15T14:49:30;0.90;;;0.47;;
66609;SDS011;53468;48.276;14.416;2023-01-15T14:55:09;1.83;;;0.63;;
66609;SDS011;53468;48.276;14.416;2023-01-15T15:00:23;2.28;;;0.77;;
66609;SDS011;53468;48.276;14.416;2023-01-15T15:05:59;4.53;;;1.08;;
66609;SDS011;53468;48.276;14.416;2023-01-15T15:34:47;2.53;;;0.80;;
66609;SDS011;53468;48.276;14.416;2023-01-15T15:39:59;1.65;;;0.85;;
66609;SDS011;53468;48.276;14.416;2023-01-15T15:45:58;1.83;;;0.88;;
66609;SDS011;53468;48.276;14.416;2023-01-15T15:57:47;1.50;;;1.10;;
66609;SDS011;53468;48.276;14.416;2023-01-15T16:02:52;1.85;;;0.82;;
66609;SDS011;53468;48.276;14.416;2023-01-15T16:07:54;2.03;;;0.90;;
66609;SDS011;53468;48.276;14.416;2023-01-15T16:12:58;1.77;;;0.80;;
66609;SDS011;53468;48.276;14.416;2023-01-15T16:18:03;2.00;;;0.80;;
66609;SDS011;53468;48.276;14.416;2023-01-15T16:23:18;2.22;;;1.30;;
66609;SDS011;53468;48.276;14.416;2023-01-15T16:28:23;3.08;;;1.73;;
66609;SDS011;53468;48.276;14.416;2023-01-15T16:33:28;4.38;;;1.73;;
66609;SDS011;53468;48.276;14.416;2023-01-15T16:38:53;3.80;;;1.95;;
66609;SDS011;53468;48.276;14.416;2023-01-15T16:43:59;2.03;;;0.90;;
66609;SDS011;53468;48.276;14.416;2023-01-15T16:49:17;2.67;;;1.10;;
66609;SDS011;53468;48.276;14.416;2023-01-15T16:54:43;2.60;;;1.27;;
66609;SDS011;53468;48.276;14.416;2023-01-15T16:59:54;15.75;;;5.78;;
66609;SDS011;53468;48.276;14.416;2023-01-15T17:11:25;5.75;;;2.05;;
66609;SDS011;53468;48.276;14.416;2023-01-15T17:44:32;22.00;;;7.13;;
66609;SDS011;53468;48.276;14.416;2023-01-15T17:49:34;2.65;;;1.10;;
66609;SDS011;53468;48.276;14.416;2023-01-15T17:54:37;6.65;;;2.80;;
66609;SDS011;53468;48.276;14.416;2023-01-15T17:59:58;14.75;;;4.25;;
66609;SDS011;53468;48.276;14.416;2023-01-15T18:05:17;14.30;;;5.15;;
66609;SDS011;53468;48.276;14.416;2023-01-15T18:10:27;3.40;;;1.95;;
66609;SDS011;53468;48.276;14.416;2023-01-15T18:15:34;2.35;;;0.70;;
66609;SDS011;53468;48.276;14.416;2023-01-15T18:20:36;2.72;;;1.30;;
66609;SDS011;53468;48.276;14.416;2023-01-15T18:25:40;3.42;;;1.02;;
66609;SDS011;53468;48.276;14.416;2023-01-15T18:30:47;10.10;;;3.88;;
66609;SDS011;53468;48.276;14.416;2023-01-15T18:35:59;4.25;;;1.75;;
66609;SDS011;53468;48.276;14.416;2023-01-15T18:41:08;3.60;;;2.00;;
66609;SDS011;53468;48.276;14.416;2023-01-15T18:46:38;4.32;;;2.60;;
66609;SDS011;53468;48.276;14.416;2023-01-15T18:57:11;9.57;;;4.55;;
66609;SDS011;53468;48.276;14.416;2023-01-15T19:02:19;8.70;;;3.95;;
66609;SDS011;53468;48.276;14.416;2023-01-15T19:07:22;8.88;;;5.25;;
66609;SDS011;53468;48.276;14.416;2023-01-15T19:12:29;16.05;;;5.00;;
66609;SDS011;53468;48.276;14.416;2023-01-15T19:17:36;15.68;;;5.30;;
66609;SDS011;53468;48.276;14.416;2023-01-15T19:22:55;9.90;;;4.27;;
66609;SDS011;53468;48.276;14.416;2023-01-15T19:28:00;10.85;;;4.78;;
66609;SDS011;53468;48.276;14.416;2023-01-15T19:33:04;2.83;;;1.50;;
66609;SDS011;53468;48.276;14.416;2023-01-15T19:38:08;3.10;;;1.50;;
66609;SDS011;53468;48.276;14.416;2023-01-15T19:43:10;3.33;;;1.05;;
66609;SDS011;53468;48.276;14.416;2023-01-15T19:48:31;1.67;;;0.50;;
66609;SDS011;53468;48.276;14.416;2023-01-15T19:53:51;0.57;;;0.30;;
66609;SDS011;53468;48.276;14.416;2023-01-15T19:58:53;0.70;;;0.35;;
66609;SDS011;53468;48.276;14.416;2023-01-15T20:03:57;2.40;;;1.08;;
66609;SDS011;53468;48.276;14.416;2023-01-15T20:08:59;7.38;;;3.05;;
66609;SDS011;53468;48.276;14.416;2023-01-15T20:14:01;6.72;;;2.63;;
66609;SDS011;53468;48.276;14.416;2023-01-15T20:19:05;4.72;;;1.40;;
66609;SDS011;53468;48.276;14.416;2023-01-15T20:24:07;7.05;;;2.13;;
66609;SDS011;53468;48.276;14.416;2023-01-15T20:29:09;3.15;;;1.52;;
66609;SDS011;53468;48.276;14.416;2023-01-15T20:34:13;9.20;;;4.70;;
66609;SDS011;53468;48.276;14.416;2023-01-15T20:39:15;13.07;;;5.43;;
66609;SDS011;53468;48.276;14.416;2023-01-15T20:44:17;7.43;;;3.92;;
66609;SDS011;53468;48.276;14.416;2023-01-15T20:49:34;6.25;;;3.40;;
66609;SDS011;53468;48.276;14.416;2023-01-15T20:54:36;10.75;;;3.97;;
66609;SDS011;53468;48.276;14.416;2023-01-15T20:59:39;8.45;;;4.53;;
66609;SDS011;53468;48.276;14.416;2023-01-15T21:04:42;7.38;;;4.50;;
66609;SDS011;53468;48.276;14.416;2023-01-15T21:09:45;8.43;;;4.75;;
66609;SDS011;53468;48.276;14.416;2023-01-15T21:14:47;9.35;;;5.18;;
66609;SDS011;53468;48.276;14.416;2023-01-15T21:19:50;11.45;;;5.90;;
66609;SDS011;53468;48.276;14.416;2023-01-15T21:24:53;10.48;;;5.30;;
66609;SDS011;53468;48.276;14.416;2023-01-15T21:29:55;9.15;;;4.97;;
66609;SDS011;53468;48.276;14.416;2023-01-15T21:34:58;7.70;;;5.38;;
66609;SDS011;53468;48.276;14.416;2023-01-15T21:40:01;11.90;;;6.03;;
66609;SDS011;53468;48.276;14.416;2023-01-15T21:45:03;13.20;;;6.68;;
66609;SDS011;53468;48.276;14.416;2023-01-15T21:50:09;10.90;;;6.15;;
66609;SDS011;53468;48.276;14.416;2023-01-15T21:55:11;10.40;;;5.47;;
66609;SDS011;53468;48.276;14.416;2023-01-15T22:00:13;9.30;;;4.70;;
66609;SDS011;53468;48.276;14.416;2023-01-15T22:05:21;6.05;;;4.07;;
66609;SDS011;53468;48.276;14.416;2023-01-15T22:10:23;3.90;;;2.72;;
66609;SDS011;53468;48.276;14.416;2023-01-15T22:15:26;10.32;;;5.05;;
66609;SDS011;53468;48.276;14.416;2023-01-15T22:20:29;12.02;;;5.68;;
66609;SDS011;53468;48.276;14.416;2023-01-15T22:25:31;6.97;;;4.85;;
66609;SDS011;53468;48.276;14.416;2023-01-15T22:30:35;7.07;;;3.97;;
66609;SDS011;53468;48.276;14.416;2023-01-15T22:35:40;7.18;;;4.05;;
66609;SDS011;53468;48.276;14.416;2023-01-15T22:40:42;8.40;;;4.97;;
66609;SDS011;53468;48.276;14.416;2023-01-15T22:45:44;11.10;;;5.20;;
66609;SDS011;53468;48.276;14.416;2023-01-15T22:50:49;10.48;;;4.43;;
66609;SDS011;53468;48.276;14.416;2023-01-15T22:55:53;29.10;;;6.45;;
66609;SDS011;53468;48.276;14.416;2023-01-15T23:00:56;8.00;;;3.80;;
66609;SDS011;53468;48.276;14.416;2023-01-15T23:06:02;7.30;;;4.20;;
66609;SDS011;53468;48.276;14.416;2023-01-15T23:11:11;7.78;;;3.92;;
66609;SDS011;53468;48.276;14.416;2023-01-15T23:16:14;6.00;;;3.75;;
66609;SDS011;53468;48.276;14.416;2023-01-15T23:21:20;8.85;;;4.18;;
66609;SDS011;53468;48.276;14.416;2023-01-15T23:26:24;7.30;;;4.80;;
66609;SDS011;53468;48.276;14.416;2023-01-15T23:31:30;8.48;;;4.82;;
66609;SDS011;53468;48.276;14.416;2023-01-15T23:36:34;11.25;;;7.47;;
66609;SDS011;53468;48.276;14.416;2023-01-15T23:41:36;10.27;;;6.47;;
66609;SDS011;53468;48.276;14.416;2023-01-15T23:46:55;12.05;;;6.95;;
66609;SDS011;53468;48.276;14.416;2023-01-15T23:51:59;12.70;;;7.50;;
66609;SDS011;53468;48.276;14.416;2023-01-15T23:57:02;11.27;;;6.32;;
